sensor_id;sensor_type;location;lat;lon;timestamp;P1;durP1;ratioP1;P2;durP2;ratioP2
14125;SDS011;7141;49.484;11.242;2022-12-18T00:00:44;33.03;;;13.73;;
14125;SDS011;7141;49.484;11.242;2022-12-18T00:03:12;30.50;;;12.60;;
14125;SDS011;7141;49.484;11.242;2022-12-18T00:05:45;29.33;;;13.10;;
14125;SDS011;7141;49.484;11.242;2022-12-18T00:08:11;30.67;;;13.00;;
14125;SDS011;7141;49.484;11.242;2022-12-18T00:10:37;30.97;;;12.97;;
14125;SDS011;7141;49.484;11.242;2022-12-18T00:13:03;38.27;;;15.43;;
14125;SDS011;7141;49.484;11.242;2022-12-18T00:15:29;29.83;;;13.33;;
14125;SDS011;7141;49.484;11.242;2022-12-18T00:17:55;33.47;;;15.20;;
14125;SDS011;7141;49.484;11.242;2022-12-18T00:20:20;44.37;;;17.93;;
14125;SDS011;7141;49.484;11.242;2022-12-18T00:22:50;47.47;;;17.47;;
14125;SDS011;7141;49.484;11.242;2022-12-18T00:25:16;42.67;;;16.70;;
14125;SDS011;7141;49.484;11.242;2022-12-18T00:27:42;40.60;;;15.90;;
14125;SDS011;7141;49.484;11.242;2022-12-18T00:30:08;39.70;;;16.73;;
14125;SDS011;7141;49.484;11.242;2022-12-18T00:32:35;37.00;;;15.37;;
14125;SDS011;7141;49.484;11.242;2022-12-18T00:35:01;32.97;;;12.90;;
14125;SDS011;7141;49.484;11.242;2022-12-18T00:37:27;27.10;;;11.03;;
14125;SDS011;7141;49.484;11.242;2022-12-18T00:39:53;21.73;;;11.07;;
14125;SDS011;7141;49.484;11.242;2022-12-18T00:42:19;30.70;;;12.00;;
14125;SDS011;7141;49.484;11.242;2022-12-18T00:45:03;25.37;;;11.07;;
14125;SDS011;7141;49.484;11.242;2022-12-18T00:47:29;22.75;;;11.23;;
14125;SDS011;7141;49.484;11.242;2022-12-18T00:49:55;37.33;;;11.47;;
14125;SDS011;7141;49.484;11.242;2022-12-18T00:52:21;26.87;;;11.33;;
14125;SDS011;7141;49.484;11.242;2022-12-18T00:54:47;20.37;;;10.90;;
14125;SDS011;7141;49.484;11.242;2022-12-18T00:57:13;24.10;;;10.97;;
14125;SDS011;7141;49.484;11.242;2022-12-18T00:59:39;26.13;;;11.33;;
14125;SDS011;7141;49.484;11.242;2022-12-18T01:02:05;33.73;;;13.73;;
14125;SDS011;7141;49.484;11.242;2022-12-18T01:04:32;24.00;;;11.47;;
14125;SDS011;7141;49.484;11.242;2022-12-18T01:06:58;25.05;;;11.35;;
14125;SDS011;7141;49.484;11.242;2022-12-18T01:09:24;23.03;;;10.67;;
14125;SDS011;7141;49.484;11.242;2022-12-18T01:11:50;20.00;;;9.85;;
14125;SDS011;7141;49.484;11.242;2022-12-18T01:14:16;22.40;;;9.38;;
14125;SDS011;7141;49.484;11.242;2022-12-18T01:16:42;23.50;;;10.57;;
14125;SDS011;7141;49.484;11.242;2022-12-18T01:19:08;18.53;;;8.50;;
14125;SDS011;7141;49.484;11.242;2022-12-18T01:21:34;24.93;;;10.00;;
14125;SDS011;7141;49.484;11.242;2022-12-18T01:24:00;20.27;;;8.97;;
14125;SDS011;7141;49.484;11.242;2022-12-18T01:26:26;21.00;;;10.03;;
14125;SDS011;7141;49.484;11.242;2022-12-18T01:28:54;24.83;;;9.37;;
14125;SDS011;7141;49.484;11.242;2022-12-18T01:31:22;24.17;;;10.37;;
14125;SDS011;7141;49.484;11.242;2022-12-18T01:33:49;26.02;;;10.07;;
14125;SDS011;7141;49.484;11.242;2022-12-18T01:36:16;22.85;;;9.55;;
14125;SDS011;7141;49.484;11.242;2022-12-18T01:38:42;21.87;;;9.60;;
14125;SDS011;7141;49.484;11.242;2022-12-18T01:41:08;26.70;;;9.80;;
14125;SDS011;7141;49.484;11.242;2022-12-18T01:43:42;21.45;;;9.55;;
14125;SDS011;7141;49.484;11.242;2022-12-18T01:46:08;21.63;;;10.35;;
14125;SDS011;7141;49.484;11.242;2022-12-18T01:48:34;23.33;;;9.80;;
14125;SDS011;7141;49.484;11.242;2022-12-18T01:51:00;27.07;;;10.90;;
14125;SDS011;7141;49.484;11.242;2022-12-18T01:53:26;25.25;;;10.05;;
14125;SDS011;7141;49.484;11.242;2022-12-18T01:55:54;24.13;;;10.13;;
14125;SDS011;7141;49.484;11.242;2022-12-18T01:58:21;24.63;;;10.18;;
14125;SDS011;7141;49.484;11.242;2022-12-18T02:00:48;23.63;;;10.30;;
14125;SDS011;7141;49.484;11.242;2022-12-18T02:03:14;21.93;;;10.17;;
14125;SDS011;7141;49.484;11.242;2022-12-18T02:05:47;25.47;;;10.23;;
14125;SDS011;7141;49.484;11.242;2022-12-18T02:08:22;29.75;;;11.73;;
14125;SDS011;7141;49.484;11.242;2022-12-18T02:13:27;27.00;;;10.77;;
14125;SDS011;7141;49.484;11.242;2022-12-18T02:18:27;29.23;;;11.07;;
14125;SDS011;7141;49.484;11.242;2022-12-18T02:20:55;28.00;;;10.87;;
14125;SDS011;7141;49.484;11.242;2022-12-18T02:26:14;32.03;;;10.73;;
14125;SDS011;7141;49.484;11.242;2022-12-18T02:28:41;26.67;;;12.10;;
14125;SDS011;7141;49.484;11.242;2022-12-18T02:31:09;29.63;;;11.57;;
14125;SDS011;7141;49.484;11.242;2022-12-18T02:33:37;27.63;;;11.40;;
14125;SDS011;7141;49.484;11.242;2022-12-18T02:36:03;29.80;;;12.37;;
14125;SDS011;7141;49.484;11.242;2022-12-18T02:38:30;28.73;;;12.10;;
14125;SDS011;7141;49.484;11.242;2022-12-18T02:40:56;22.57;;;10.20;;
14125;SDS011;7141;49.484;11.242;2022-12-18T02:43:23;23.63;;;10.70;;
14125;SDS011;7141;49.484;11.242;2022-12-18T02:45:53;22.17;;;9.23;;
14125;SDS011;7141;49.484;11.242;2022-12-18T02:48:21;20.13;;;8.53;;
14125;SDS011;7141;49.484;11.242;2022-12-18T02:50:51;16.87;;;8.43;;
14125;SDS011;7141;49.484;11.242;2022-12-18T02:53:33;16.33;;;7.87;;
14125;SDS011;7141;49.484;11.242;2022-12-18T02:58:40;18.43;;;8.10;;
14125;SDS011;7141;49.484;11.242;2022-12-18T03:01:16;20.43;;;9.07;;
14125;SDS011;7141;49.484;11.242;2022-12-18T03:03:46;21.73;;;8.73;;
14125;SDS011;7141;49.484;11.242;2022-12-18T03:06:26;15.50;;;6.87;;
14125;SDS011;7141;49.484;11.242;2022-12-18T03:08:58;19.80;;;7.67;;
14125;SDS011;7141;49.484;11.242;2022-12-18T03:11:25;13.70;;;7.07;;
14125;SDS011;7141;49.484;11.242;2022-12-18T03:14:12;20.60;;;8.65;;
14125;SDS011;7141;49.484;11.242;2022-12-18T03:16:38;20.83;;;8.20;;
14125;SDS011;7141;49.484;11.242;2022-12-18T03:19:07;17.35;;;7.53;;
14125;SDS011;7141;49.484;11.242;2022-12-18T03:21:45;21.00;;;7.80;;
14125;SDS011;7141;49.484;11.242;2022-12-18T03:24:13;21.48;;;7.28;;
14125;SDS011;7141;49.484;11.242;2022-12-18T03:26:40;19.43;;;7.20;;
14125;SDS011;7141;49.484;11.242;2022-12-18T03:29:07;15.65;;;7.70;;
14125;SDS011;7141;49.484;11.242;2022-12-18T03:31:35;19.20;;;7.53;;
14125;SDS011;7141;49.484;11.242;2022-12-18T03:34:04;18.73;;;7.80;;
14125;SDS011;7141;49.484;11.242;2022-12-18T03:36:31;12.95;;;7.60;;
14125;SDS011;7141;49.484;11.242;2022-12-18T03:38:57;17.90;;;7.90;;
14125;SDS011;7141;49.484;11.242;2022-12-18T03:43:55;20.00;;;6.88;;
14125;SDS011;7141;49.484;11.242;2022-12-18T03:46:30;19.42;;;7.45;;
14125;SDS011;7141;49.484;11.242;2022-12-18T03:48:59;14.90;;;6.97;;
14125;SDS011;7141;49.484;11.242;2022-12-18T03:52:09;15.27;;;7.32;;
14125;SDS011;7141;49.484;11.242;2022-12-18T03:54:16;17.80;;;7.45;;
14125;SDS011;7141;49.484;11.242;2022-12-18T03:56:44;14.37;;;6.70;;
14125;SDS011;7141;49.484;11.242;2022-12-18T03:59:11;16.30;;;6.95;;
14125;SDS011;7141;49.484;11.242;2022-12-18T04:01:39;18.02;;;7.88;;
14125;SDS011;7141;49.484;11.242;2022-12-18T04:04:06;19.30;;;7.55;;
14125;SDS011;7141;49.484;11.242;2022-12-18T04:06:36;18.15;;;8.25;;
14125;SDS011;7141;49.484;11.242;2022-12-18T04:09:03;20.70;;;8.65;;
14125;SDS011;7141;49.484;11.242;2022-12-18T04:11:29;19.70;;;9.02;;
14125;SDS011;7141;49.484;11.242;2022-12-18T04:13:56;26.53;;;9.37;;
14125;SDS011;7141;49.484;11.242;2022-12-18T04:16:23;22.38;;;9.10;;
14125;SDS011;7141;49.484;11.242;2022-12-18T04:18:49;23.45;;;9.07;;
14125;SDS011;7141;49.484;11.242;2022-12-18T04:21:16;20.47;;;9.43;;
14125;SDS011;7141;49.484;11.242;2022-12-18T04:23:42;26.80;;;9.07;;
14125;SDS011;7141;49.484;11.242;2022-12-18T04:26:07;27.87;;;10.40;;
14125;SDS011;7141;49.484;11.242;2022-12-18T04:28:33;21.03;;;9.53;;
14125;SDS011;7141;49.484;11.242;2022-12-18T04:30:59;27.93;;;10.23;;
14125;SDS011;7141;49.484;11.242;2022-12-18T04:33:25;24.73;;;10.63;;
14125;SDS011;7141;49.484;11.242;2022-12-18T04:35:51;25.50;;;10.47;;
14125;SDS011;7141;49.484;11.242;2022-12-18T04:38:17;28.63;;;11.90;;
14125;SDS011;7141;49.484;11.242;2022-12-18T04:40:43;31.47;;;12.93;;
14125;SDS011;7141;49.484;11.242;2022-12-18T04:43:09;29.43;;;11.33;;
14125;SDS011;7141;49.484;11.242;2022-12-18T04:45:35;31.10;;;11.90;;
14125;SDS011;7141;49.484;11.242;2022-12-18T04:48:02;33.47;;;13.03;;
14125;SDS011;7141;49.484;11.242;2022-12-18T04:50:28;31.30;;;12.27;;
14125;SDS011;7141;49.484;11.242;2022-12-18T04:52:54;27.10;;;11.53;;
14125;SDS011;7141;49.484;11.242;2022-12-18T04:55:20;31.70;;;12.67;;
14125;SDS011;7141;49.484;11.242;2022-12-18T04:57:49;39.60;;;12.47;;
14125;SDS011;7141;49.484;11.242;2022-12-18T05:00:15;30.47;;;11.40;;
14125;SDS011;7141;49.484;11.242;2022-12-18T05:02:41;29.23;;;12.67;;
14125;SDS011;7141;49.484;11.242;2022-12-18T05:05:07;31.83;;;11.93;;
14125;SDS011;7141;49.484;11.242;2022-12-18T05:07:33;34.47;;;13.90;;
14125;SDS011;7141;49.484;11.242;2022-12-18T05:09:59;33.30;;;12.93;;
14125;SDS011;7141;49.484;11.242;2022-12-18T05:12:25;27.70;;;11.97;;
14125;SDS011;7141;49.484;11.242;2022-12-18T05:14:52;34.27;;;13.53;;
14125;SDS011;7141;49.484;11.242;2022-12-18T05:17:18;36.13;;;14.07;;
14125;SDS011;7141;49.484;11.242;2022-12-18T05:19:44;35.70;;;13.90;;
14125;SDS011;7141;49.484;11.242;2022-12-18T05:22:10;34.50;;;13.33;;
14125;SDS011;7141;49.484;11.242;2022-12-18T05:24:36;33.70;;;13.27;;
14125;SDS011;7141;49.484;11.242;2022-12-18T05:27:03;31.43;;;12.70;;
14125;SDS011;7141;49.484;11.242;2022-12-18T05:29:29;41.27;;;14.00;;
14125;SDS011;7141;49.484;11.242;2022-12-18T05:31:55;37.23;;;14.37;;
14125;SDS011;7141;49.484;11.242;2022-12-18T05:34:21;33.00;;;13.07;;
14125;SDS011;7141;49.484;11.242;2022-12-18T05:36:46;33.73;;;11.60;;
14125;SDS011;7141;49.484;11.242;2022-12-18T05:39:12;31.53;;;12.43;;
14125;SDS011;7141;49.484;11.242;2022-12-18T05:41:38;32.70;;;13.00;;
14125;SDS011;7141;49.484;11.242;2022-12-18T05:44:04;33.30;;;12.83;;
14125;SDS011;7141;49.484;11.242;2022-12-18T05:46:30;31.20;;;12.33;;
14125;SDS011;7141;49.484;11.242;2022-12-18T05:48:58;38.10;;;13.67;;
14125;SDS011;7141;49.484;11.242;2022-12-18T05:51:26;29.77;;;13.30;;
14125;SDS011;7141;49.484;11.242;2022-12-18T05:53:52;31.60;;;12.17;;
14125;SDS011;7141;49.484;11.242;2022-12-18T05:56:19;24.90;;;11.47;;
14125;SDS011;7141;49.484;11.242;2022-12-18T05:58:45;34.90;;;12.73;;
14125;SDS011;7141;49.484;11.242;2022-12-18T06:01:13;26.00;;;12.03;;
14125;SDS011;7141;49.484;11.242;2022-12-18T06:03:39;30.37;;;12.43;;
14125;SDS011;7141;49.484;11.242;2022-12-18T06:06:25;28.20;;;12.80;;
14125;SDS011;7141;49.484;11.242;2022-12-18T06:08:51;28.60;;;12.47;;
14125;SDS011;7141;49.484;11.242;2022-12-18T06:11:22;28.70;;;12.53;;
14125;SDS011;7141;49.484;11.242;2022-12-18T06:13:51;32.83;;;12.03;;
14125;SDS011;7141;49.484;11.242;2022-12-18T06:16:18;28.33;;;12.30;;
14125;SDS011;7141;49.484;11.242;2022-12-18T06:18:44;31.70;;;11.60;;
14125;SDS011;7141;49.484;11.242;2022-12-18T06:21:10;34.13;;;13.07;;
14125;SDS011;7141;49.484;11.242;2022-12-18T06:23:36;27.90;;;11.97;;
14125;SDS011;7141;49.484;11.242;2022-12-18T06:26:03;34.63;;;13.63;;
14125;SDS011;7141;49.484;11.242;2022-12-18T06:28:30;27.63;;;11.63;;
14125;SDS011;7141;49.484;11.242;2022-12-18T06:30:56;36.40;;;12.00;;
14125;SDS011;7141;49.484;11.242;2022-12-18T06:33:22;33.77;;;12.13;;
14125;SDS011;7141;49.484;11.242;2022-12-18T06:35:52;35.17;;;12.83;;
14125;SDS011;7141;49.484;11.242;2022-12-18T06:38:17;40.07;;;13.50;;
14125;SDS011;7141;49.484;11.242;2022-12-18T06:40:43;32.43;;;12.57;;
14125;SDS011;7141;49.484;11.242;2022-12-18T06:43:09;34.77;;;13.10;;
14125;SDS011;7141;49.484;11.242;2022-12-18T06:45:35;37.00;;;12.23;;
14125;SDS011;7141;49.484;11.242;2022-12-18T06:48:01;40.70;;;13.63;;
14125;SDS011;7141;49.484;11.242;2022-12-18T06:50:27;39.50;;;14.33;;
14125;SDS011;7141;49.484;11.242;2022-12-18T06:52:54;44.83;;;17.93;;
14125;SDS011;7141;49.484;11.242;2022-12-18T06:55:20;41.63;;;14.03;;
14125;SDS011;7141;49.484;11.242;2022-12-18T06:57:45;33.33;;;13.60;;
14125;SDS011;7141;49.484;11.242;2022-12-18T07:00:12;29.67;;;12.23;;
14125;SDS011;7141;49.484;11.242;2022-12-18T07:02:38;32.77;;;13.63;;
14125;SDS011;7141;49.484;11.242;2022-12-18T07:05:05;30.67;;;13.27;;
14125;SDS011;7141;49.484;11.242;2022-12-18T07:07:31;27.33;;;12.47;;
14125;SDS011;7141;49.484;11.242;2022-12-18T07:10:00;31.87;;;12.77;;
14125;SDS011;7141;49.484;11.242;2022-12-18T07:12:26;31.10;;;11.73;;
14125;SDS011;7141;49.484;11.242;2022-12-18T07:14:52;27.70;;;11.37;;
14125;SDS011;7141;49.484;11.242;2022-12-18T07:17:18;35.97;;;13.57;;
14125;SDS011;7141;49.484;11.242;2022-12-18T07:19:44;31.53;;;12.10;;
14125;SDS011;7141;49.484;11.242;2022-12-18T07:22:10;31.97;;;12.03;;
14125;SDS011;7141;49.484;11.242;2022-12-18T07:24:36;29.93;;;13.23;;
14125;SDS011;7141;49.484;11.242;2022-12-18T07:27:02;29.50;;;12.13;;
14125;SDS011;7141;49.484;11.242;2022-12-18T07:29:28;32.33;;;12.53;;
14125;SDS011;7141;49.484;11.242;2022-12-18T07:31:54;29.87;;;12.67;;
14125;SDS011;7141;49.484;11.242;2022-12-18T07:34:20;29.00;;;10.80;;
14125;SDS011;7141;49.484;11.242;2022-12-18T07:36:46;27.67;;;11.97;;
14125;SDS011;7141;49.484;11.242;2022-12-18T07:39:12;28.23;;;12.47;;
14125;SDS011;7141;49.484;11.242;2022-12-18T07:41:38;37.40;;;13.00;;
14125;SDS011;7141;49.484;11.242;2022-12-18T07:44:09;26.43;;;11.80;;
14125;SDS011;7141;49.484;11.242;2022-12-18T07:46:35;32.97;;;12.27;;
14125;SDS011;7141;49.484;11.242;2022-12-18T07:49:01;25.23;;;11.93;;
14125;SDS011;7141;49.484;11.242;2022-12-18T07:51:27;31.10;;;11.17;;
14125;SDS011;7141;49.484;11.242;2022-12-18T07:53:53;32.77;;;12.73;;
14125;SDS011;7141;49.484;11.242;2022-12-18T07:56:19;29.13;;;13.30;;
14125;SDS011;7141;49.484;11.242;2022-12-18T07:58:48;36.00;;;13.30;;
14125;SDS011;7141;49.484;11.242;2022-12-18T08:01:14;33.07;;;12.93;;
14125;SDS011;7141;49.484;11.242;2022-12-18T08:03:40;34.53;;;13.50;;
14125;SDS011;7141;49.484;11.242;2022-12-18T08:06:06;30.30;;;11.63;;
14125;SDS011;7141;49.484;11.242;2022-12-18T08:08:33;37.57;;;14.93;;
14125;SDS011;7141;49.484;11.242;2022-12-18T08:10:59;45.33;;;18.83;;
14125;SDS011;7141;49.484;11.242;2022-12-18T08:13:26;37.30;;;15.97;;
14125;SDS011;7141;49.484;11.242;2022-12-18T08:15:58;110.13;;;37.53;;
14125;SDS011;7141;49.484;11.242;2022-12-18T08:18:25;63.60;;;25.80;;
14125;SDS011;7141;49.484;11.242;2022-12-18T08:20:51;41.60;;;15.30;;
14125;SDS011;7141;49.484;11.242;2022-12-18T08:23:17;35.00;;;15.20;;
14125;SDS011;7141;49.484;11.242;2022-12-18T08:25:43;29.97;;;14.03;;
14125;SDS011;7141;49.484;11.242;2022-12-18T08:28:09;33.53;;;13.93;;
14125;SDS011;7141;49.484;11.242;2022-12-18T08:30:35;38.63;;;18.93;;
14125;SDS011;7141;49.484;11.242;2022-12-18T08:33:01;45.30;;;16.17;;
14125;SDS011;7141;49.484;11.242;2022-12-18T08:35:27;44.03;;;18.43;;
14125;SDS011;7141;49.484;11.242;2022-12-18T08:37:53;50.97;;;17.67;;
14125;SDS011;7141;49.484;11.242;2022-12-18T08:40:19;39.77;;;16.67;;
14125;SDS011;7141;49.484;11.242;2022-12-18T08:42:45;40.07;;;17.23;;
14125;SDS011;7141;49.484;11.242;2022-12-18T08:45:33;39.93;;;17.33;;
14125;SDS011;7141;49.484;11.242;2022-12-18T08:47:59;35.33;;;15.33;;
14125;SDS011;7141;49.484;11.242;2022-12-18T08:50:25;33.70;;;15.80;;
14125;SDS011;7141;49.484;11.242;2022-12-18T08:52:51;36.37;;;14.57;;
14125;SDS011;7141;49.484;11.242;2022-12-18T08:55:17;38.50;;;15.83;;
14125;SDS011;7141;49.484;11.242;2022-12-18T08:57:47;32.70;;;14.10;;
14125;SDS011;7141;49.484;11.242;2022-12-18T09:00:14;38.37;;;16.63;;
14125;SDS011;7141;49.484;11.242;2022-12-18T09:02:40;44.83;;;16.83;;
14125;SDS011;7141;49.484;11.242;2022-12-18T09:05:06;35.33;;;15.43;;
14125;SDS011;7141;49.484;11.242;2022-12-18T09:07:32;39.70;;;15.03;;
14125;SDS011;7141;49.484;11.242;2022-12-18T09:09:58;32.20;;;14.30;;
14125;SDS011;7141;49.484;11.242;2022-12-18T09:12:24;38.77;;;15.37;;
14125;SDS011;7141;49.484;11.242;2022-12-18T09:14:50;34.90;;;16.27;;
14125;SDS011;7141;49.484;11.242;2022-12-18T09:17:16;38.87;;;16.13;;
14125;SDS011;7141;49.484;11.242;2022-12-18T09:19:42;38.53;;;16.63;;
14125;SDS011;7141;49.484;11.242;2022-12-18T09:22:08;40.13;;;16.23;;
14125;SDS011;7141;49.484;11.242;2022-12-18T09:24:35;34.97;;;14.60;;
14125;SDS011;7141;49.484;11.242;2022-12-18T09:27:01;34.77;;;14.27;;
14125;SDS011;7141;49.484;11.242;2022-12-18T09:29:27;34.17;;;14.47;;
14125;SDS011;7141;49.484;11.242;2022-12-18T09:31:53;37.60;;;17.47;;
14125;SDS011;7141;49.484;11.242;2022-12-18T09:34:19;42.73;;;18.87;;
14125;SDS011;7141;49.484;11.242;2022-12-18T09:36:47;33.47;;;13.90;;
14125;SDS011;7141;49.484;11.242;2022-12-18T09:39:13;36.30;;;14.17;;
14125;SDS011;7141;49.484;11.242;2022-12-18T09:46:52;35.10;;;13.50;;
14125;SDS011;7141;49.484;11.242;2022-12-18T09:49:19;36.93;;;16.53;;
14125;SDS011;7141;49.484;11.242;2022-12-18T09:51:52;36.77;;;14.83;;
14125;SDS011;7141;49.484;11.242;2022-12-18T09:54:22;36.23;;;14.87;;
14125;SDS011;7141;49.484;11.242;2022-12-18T09:56:49;36.17;;;14.83;;
14125;SDS011;7141;49.484;11.242;2022-12-18T09:59:21;32.40;;;13.97;;
14125;SDS011;7141;49.484;11.242;2022-12-18T10:01:48;40.53;;;14.80;;
14125;SDS011;7141;49.484;11.242;2022-12-18T10:04:14;30.23;;;14.07;;
14125;SDS011;7141;49.484;11.242;2022-12-18T10:09:32;29.93;;;12.97;;
14125;SDS011;7141;49.484;11.242;2022-12-18T10:27:25;31.50;;;13.37;;
14125;SDS011;7141;49.484;11.242;2022-12-18T10:29:52;28.10;;;12.60;;
14125;SDS011;7141;49.484;11.242;2022-12-18T10:32:22;29.47;;;12.63;;
14125;SDS011;7141;49.484;11.242;2022-12-18T10:34:50;32.43;;;14.20;;
14125;SDS011;7141;49.484;11.242;2022-12-18T10:37:18;26.47;;;12.23;;
14125;SDS011;7141;49.484;11.242;2022-12-18T10:39:44;33.80;;;13.23;;
14125;SDS011;7141;49.484;11.242;2022-12-18T10:42:13;30.33;;;13.33;;
14125;SDS011;7141;49.484;11.242;2022-12-18T10:44:41;32.07;;;12.97;;
14125;SDS011;7141;49.484;11.242;2022-12-18T10:47:10;29.87;;;13.23;;
14125;SDS011;7141;49.484;11.242;2022-12-18T10:49:36;31.87;;;13.50;;
14125;SDS011;7141;49.484;11.242;2022-12-18T10:52:05;25.07;;;11.70;;
14125;SDS011;7141;49.484;11.242;2022-12-18T10:54:32;26.00;;;12.03;;
14125;SDS011;7141;49.484;11.242;2022-12-18T10:59:50;24.60;;;11.33;;
14125;SDS011;7141;49.484;11.242;2022-12-18T11:04:51;28.83;;;13.27;;
14125;SDS011;7141;49.484;11.242;2022-12-18T11:07:18;35.57;;;15.10;;
14125;SDS011;7141;49.484;11.242;2022-12-18T11:09:44;37.27;;;14.93;;
14125;SDS011;7141;49.484;11.242;2022-12-18T11:12:24;30.33;;;12.40;;
14125;SDS011;7141;49.484;11.242;2022-12-18T11:14:50;30.63;;;12.47;;
14125;SDS011;7141;49.484;11.242;2022-12-18T11:17:20;26.73;;;12.43;;
14125;SDS011;7141;49.484;11.242;2022-12-18T11:19:57;23.40;;;11.70;;
14125;SDS011;7141;49.484;11.242;2022-12-18T11:22:27;27.00;;;11.23;;
14125;SDS011;7141;49.484;11.242;2022-12-18T11:24:55;28.83;;;11.70;;
14125;SDS011;7141;49.484;11.242;2022-12-18T11:27:21;27.67;;;12.03;;
14125;SDS011;7141;49.484;11.242;2022-12-18T11:29:48;31.03;;;14.13;;
14125;SDS011;7141;49.484;11.242;2022-12-18T11:34:41;40.57;;;18.90;;
14125;SDS011;7141;49.484;11.242;2022-12-18T11:37:10;28.70;;;12.77;;
14125;SDS011;7141;49.484;11.242;2022-12-18T11:39:38;29.50;;;13.50;;
14125;SDS011;7141;49.484;11.242;2022-12-18T11:42:10;28.20;;;12.97;;
14125;SDS011;7141;49.484;11.242;2022-12-18T11:44:40;23.37;;;11.30;;
14125;SDS011;7141;49.484;11.242;2022-12-18T11:49:45;28.93;;;12.67;;
14125;SDS011;7141;49.484;11.242;2022-12-18T11:52:24;29.03;;;11.93;;
14125;SDS011;7141;49.484;11.242;2022-12-18T11:54:52;22.73;;;11.97;;
14125;SDS011;7141;49.484;11.242;2022-12-18T11:57:34;26.33;;;11.23;;
14125;SDS011;7141;49.484;11.242;2022-12-18T12:00:15;29.20;;;12.67;;
14125;SDS011;7141;49.484;11.242;2022-12-18T12:02:46;22.73;;;10.93;;
14125;SDS011;7141;49.484;11.242;2022-12-18T12:08:02;27.37;;;11.50;;
14125;SDS011;7141;49.484;11.242;2022-12-18T12:23:44;31.47;;;13.17;;
14125;SDS011;7141;49.484;11.242;2022-12-18T12:31:50;30.17;;;13.47;;
14125;SDS011;7141;49.484;11.242;2022-12-18T12:34:21;30.20;;;12.70;;
14125;SDS011;7141;49.484;11.242;2022-12-18T12:39:35;27.17;;;12.20;;
14125;SDS011;7141;49.484;11.242;2022-12-18T12:42:03;28.57;;;13.23;;
14125;SDS011;7141;49.484;11.242;2022-12-18T12:44:53;25.93;;;12.00;;
14125;SDS011;7141;49.484;11.242;2022-12-18T12:47:25;25.73;;;13.23;;
14125;SDS011;7141;49.484;11.242;2022-12-18T12:49:52;27.93;;;12.03;;
14125;SDS011;7141;49.484;11.242;2022-12-18T12:55:22;27.10;;;12.20;;
14125;SDS011;7141;49.484;11.242;2022-12-18T13:00:20;20.93;;;10.40;;
14125;SDS011;7141;49.484;11.242;2022-12-18T13:08:26;30.27;;;14.70;;
14125;SDS011;7141;49.484;11.242;2022-12-18T13:10:44;22.27;;;10.07;;
14125;SDS011;7141;49.484;11.242;2022-12-18T13:13:10;21.43;;;10.53;;
14125;SDS011;7141;49.484;11.242;2022-12-18T13:15:44;23.37;;;12.63;;
14125;SDS011;7141;49.484;11.242;2022-12-18T13:20:44;21.37;;;9.73;;
14125;SDS011;7141;49.484;11.242;2022-12-18T13:25:45;24.60;;;12.17;;
14125;SDS011;7141;49.484;11.242;2022-12-18T13:28:13;22.33;;;11.17;;
14125;SDS011;7141;49.484;11.242;2022-12-18T13:30:52;24.37;;;10.77;;
14125;SDS011;7141;49.484;11.242;2022-12-18T13:45:48;21.17;;;10.17;;
14125;SDS011;7141;49.484;11.242;2022-12-18T13:48:19;26.00;;;13.37;;
14125;SDS011;7141;49.484;11.242;2022-12-18T13:50:50;23.93;;;11.70;;
14125;SDS011;7141;49.484;11.242;2022-12-18T13:53:23;24.27;;;11.43;;
14125;SDS011;7141;49.484;11.242;2022-12-18T13:55:50;26.03;;;11.57;;
14125;SDS011;7141;49.484;11.242;2022-12-18T13:58:16;23.93;;;10.97;;
14125;SDS011;7141;49.484;11.242;2022-12-18T14:00:42;23.40;;;10.57;;
14125;SDS011;7141;49.484;11.242;2022-12-18T14:03:23;25.73;;;11.37;;
14125;SDS011;7141;49.484;11.242;2022-12-18T14:06:05;26.67;;;12.40;;
14125;SDS011;7141;49.484;11.242;2022-12-18T14:08:36;21.53;;;11.70;;
14125;SDS011;7141;49.484;11.242;2022-12-18T14:11:03;24.83;;;11.33;;
14125;SDS011;7141;49.484;11.242;2022-12-18T14:13:30;21.20;;;11.13;;
14125;SDS011;7141;49.484;11.242;2022-12-18T14:15:57;26.80;;;11.73;;
14125;SDS011;7141;49.484;11.242;2022-12-18T14:20:57;23.10;;;11.10;;
14125;SDS011;7141;49.484;11.242;2022-12-18T14:23:26;27.40;;;12.40;;
14125;SDS011;7141;49.484;11.242;2022-12-18T14:25:52;25.50;;;13.53;;
14125;SDS011;7141;49.484;11.242;2022-12-18T14:28:18;26.70;;;12.07;;
14125;SDS011;7141;49.484;11.242;2022-12-18T14:30:46;24.93;;;11.90;;
14125;SDS011;7141;49.484;11.242;2022-12-18T14:33:16;26.77;;;11.17;;
14125;SDS011;7141;49.484;11.242;2022-12-18T14:38:20;27.70;;;12.30;;
14125;SDS011;7141;49.484;11.242;2022-12-18T14:40:47;27.63;;;12.03;;
14125;SDS011;7141;49.484;11.242;2022-12-18T14:43:13;27.30;;;12.03;;
14125;SDS011;7141;49.484;11.242;2022-12-18T14:45:40;27.97;;;12.30;;
14125;SDS011;7141;49.484;11.242;2022-12-18T14:48:15;23.87;;;11.73;;
14125;SDS011;7141;49.484;11.242;2022-12-18T14:50:42;25.57;;;11.43;;
14125;SDS011;7141;49.484;11.242;2022-12-18T14:53:18;26.63;;;10.67;;
14125;SDS011;7141;49.484;11.242;2022-12-18T14:55:49;23.10;;;10.63;;
14125;SDS011;7141;49.484;11.242;2022-12-18T14:58:15;23.07;;;10.37;;
14125;SDS011;7141;49.484;11.242;2022-12-18T15:00:42;22.60;;;11.07;;
14125;SDS011;7141;49.484;11.242;2022-12-18T15:03:08;24.20;;;11.23;;
14125;SDS011;7141;49.484;11.242;2022-12-18T15:05:35;27.40;;;11.57;;
14125;SDS011;7141;49.484;11.242;2022-12-18T15:08:01;28.70;;;12.63;;
14125;SDS011;7141;49.484;11.242;2022-12-18T15:10:28;28.53;;;13.20;;
14125;SDS011;7141;49.484;11.242;2022-12-18T15:20:27;24.47;;;11.80;;
14125;SDS011;7141;49.484;11.242;2022-12-18T15:22:55;26.53;;;12.10;;
14125;SDS011;7141;49.484;11.242;2022-12-18T15:25:29;24.10;;;11.87;;
14125;SDS011;7141;49.484;11.242;2022-12-18T15:27:56;30.33;;;12.67;;
14125;SDS011;7141;49.484;11.242;2022-12-18T15:30:23;26.67;;;12.67;;
14125;SDS011;7141;49.484;11.242;2022-12-18T15:32:50;30.07;;;13.47;;
14125;SDS011;7141;49.484;11.242;2022-12-18T15:35:17;32.60;;;16.83;;
14125;SDS011;7141;49.484;11.242;2022-12-18T15:37:44;34.07;;;18.30;;
14125;SDS011;7141;49.484;11.242;2022-12-18T15:40:13;29.00;;;14.33;;
14125;SDS011;7141;49.484;11.242;2022-12-18T15:42:40;26.33;;;12.30;;
14125;SDS011;7141;49.484;11.242;2022-12-18T15:45:25;20.63;;;10.47;;
14125;SDS011;7141;49.484;11.242;2022-12-18T15:47:50;20.93;;;10.33;;
14125;SDS011;7141;49.484;11.242;2022-12-18T15:50:17;20.57;;;10.30;;
14125;SDS011;7141;49.484;11.242;2022-12-18T15:52:45;24.53;;;11.87;;
14125;SDS011;7141;49.484;11.242;2022-12-18T15:55:15;28.73;;;12.63;;
14125;SDS011;7141;49.484;11.242;2022-12-18T15:58:01;31.47;;;13.63;;
14125;SDS011;7141;49.484;11.242;2022-12-18T16:00:27;54.17;;;17.97;;
14125;SDS011;7141;49.484;11.242;2022-12-18T16:02:53;34.20;;;12.90;;
14125;SDS011;7141;49.484;11.242;2022-12-18T16:05:19;26.20;;;11.97;;
14125;SDS011;7141;49.484;11.242;2022-12-18T16:07:46;25.43;;;12.53;;
14125;SDS011;7141;49.484;11.242;2022-12-18T16:10:13;24.90;;;10.93;;
14125;SDS011;7141;49.484;11.242;2022-12-18T16:12:39;25.70;;;12.80;;
14125;SDS011;7141;49.484;11.242;2022-12-18T16:15:06;28.67;;;15.07;;
14125;SDS011;7141;49.484;11.242;2022-12-18T16:17:32;26.77;;;14.03;;
14125;SDS011;7141;49.484;11.242;2022-12-18T16:19:59;31.57;;;17.00;;